Jackson, NH (03846)

2:20 PM EST on February 28, 2015 (GMT -0500)
Dana Place | Change Station
CLOSE
Current Station
Personal Weather Station
Location: JACKSON, NH
Elevation: 1190 ft
Nearby Weather Stations

Elev 1190 ft 44.20 °N, 71.23 °W | Updated 2 seconds ago

Clear
Clear
31.2 °F
Feels Like 25 °F
N
6.0
Wind Variable Wind from WNW
Gusts 6.0 mph

Today
High -- | Low -- °F
--% Chance of Precip.
Yesterday
High -- | Low -- °F
Precip. -- in
6:23 AM 5:31 PM
Waxing Gibbous, 79% visible
Pressure 30.63 in
Visibility 10.0 miles
Clouds Clear
Windchill 25 °F
Dew Point -0 °F
Humidity 25%
Rainfall 0.00 in
Snow Depth Not available.
UV 3 out of 12
Pollen .30 out of 12
Air Quality Not available.
Flu Activity Not available.
METAR KIZG 281854Z AUTO 30005KT 10SM CLR M01/M20 A3060 RMK AO2 SLP373 T10111200

More Conditions Fewer Conditions

Pressure 30.63 in
Visibility 10.0 miles
Clouds Clear
Windchill 25 °F
Dew Point -0 °F
Humidity 25%
Rainfall 0.00 in
Snow Depth Not available.
UV 3 out of 12
Pollen .30 out of 12
Air Quality Not available.
Flu Activity Not available.
METAR KIZG 281854Z AUTO 30005KT 10SM CLR M01/M20 A3060 RMK AO2 SLP373 T10111200

More Conditions Fewer Conditions

10-Day Weather Forecast

Almanac

Astronomy

Feb. 28, 2015 Rise Set
Actual Time
Civil Twilight
Nautical Twilight
Astronomical Twilight
Moon
Length of Visible Light
Length of Day
Tomorrow will be .
, % of the Moon is Illuminated

Today's Extremes

State Highs State Lows

Community

WunderPhotos

Upload Photos

1,801,122 photos uploaded!

WunderBlogs® & News

Nearby

Air Quality

  Air Quality AQ Index Pollutant
Not available.

Snow Depth

Station Depth Elevation

Earthquake Activity

City Distance Mag. Time & Date
Minimum magnitude displayed is 2.5.

Coastal Water Temperatures

Place Temperature

Nearby Weather Stations